Time;durP1;ratioP1;P1;durP2;ratioP2;P2;SDS_P1;SDS_P2;PMS_P1;PMS_P2;Temp;Humidity;BMP_temperature;BMP_pressure;BME280_temperature;BME280_humidity;BME280_pressure;Samples;Min_cycle;Max_cycle;Signal;HPM_P1;HPM_P2
2022/10/28 00:03:03;;;;;;;21.82;18.67;;;;;;;12.34;100.00;101121.56;2780373;83;20999;-89
2022/10/28 00:07:05;;;;;;;21.30;17.15;;;;;;;12.28;100.00;101120.71;2842606;82;21053;-89
2022/10/28 00:11:13;;;;;;;24.92;18.00;;;;;;;12.20;100.00;101116.45;2787307;82;21576;-87
2022/10/28 00:15:15;;;;;;;29.45;19.25;;;;;;;12.19;100.00;101116.09;2787216;83;21643;-88
2022/10/28 00:19:16;;;;;;;21.95;16.05;;;;;;;12.14;100.00;101106.59;2794139;83;21187;-87
2022/10/28 00:23:18;;;;;;;25.75;17.25;;;;;;;12.13;100.00;101103.56;2811445;83;21616;-89
2022/10/28 00:27:19;;;;;;;27.05;17.35;;;;;;;12.06;100.00;101106.33;2823436;83;21123;-88
2022/10/28 00:31:23;;;;;;;27.17;18.73;;;;;;;12.07;100.00;101101.36;2743995;83;21147;-88
2022/10/28 00:35:25;;;;;;;18.95;14.78;;;;;;;12.05;100.00;101095.77;2809299;82;21098;-88
2022/10/28 00:39:26;;;;;;;22.55;17.20;;;;;;;12.02;100.00;101095.53;2841118;82;21536;-88
2022/10/28 00:43:41;;;;;;;19.25;14.85;;;;;;;11.96;100.00;101084.81;2858368;82;21045;-88
2022/10/28 00:47:56;;;;;;;17.23;14.58;;;;;;;11.96;100.00;101091.95;2833740;80;20978;-89
2022/10/28 00:52:09;;;;;;;20.92;15.38;;;;;;;12.01;100.00;101087.17;2791834;81;21078;-90
2022/10/28 00:56:12;;;;;;;23.27;15.30;;;;;;;12.02;100.00;101080.87;2774343;82;21022;-89
2022/10/28 01:00:14;;;;;;;16.20;13.05;;;;;;;12.11;100.00;101076.66;2805716;82;21571;-90
2022/10/28 01:04:16;;;;;;;17.65;14.40;;;;;;;12.16;100.00;101071.81;2815624;82;21531;-88
2022/10/28 01:08:17;;;;;;;19.23;13.85;;;;;;;12.21;100.00;101070.14;2807897;83;21072;-89
2022/10/28 01:12:36;;;;;;;18.27;12.98;;;;;;;12.27;100.00;101065.66;2802095;83;21881;-90
2022/10/28 01:17:01;;;;;;;18.70;13.58;;;;;;;12.31;100.00;101067.12;2788475;83;21600;-89
2022/10/28 01:21:32;;;;;;;15.85;12.90;;;;;;;12.32;100.00;101057.31;2797856;83;21059;-89
2022/10/28 01:25:58;;;;;;;18.35;14.53;;;;;;;12.36;100.00;101052.93;2807797;82;21025;-89
2022/10/28 01:30:13;;;;;;;21.30;14.78;;;;;;;12.41;100.00;101050.78;2806842;82;21547;-89
2022/10/28 01:34:31;;;;;;;19.20;13.48;;;;;;;12.58;100.00;101043.28;2807892;83;21041;-89
2022/10/28 01:38:44;;;;;;;14.65;12.85;;;;;;;12.65;100.00;101039.15;2783283;83;21196;-89
2022/10/28 01:42:53;;;;;;;16.57;13.75;;;;;;;12.64;100.00;101033.45;2759333;82;21092;-89
2022/10/28 01:47:09;;;;;;;16.62;13.03;;;;;;;12.60;100.00;101025.80;2810993;82;21574;-89
2022/10/28 01:51:30;;;;;;;13.13;11.77;;;;;;;12.59;100.00;101028.97;2812321;80;21034;-89
2022/10/28 01:55:39;;;;;;;22.37;13.48;;;;;;;12.57;100.00;101025.54;2841688;81;21029;-90
2022/10/28 01:59:41;;;;;;;18.65;13.60;;;;;;;12.55;100.00;101023.01;2805057;82;20977;-89
2022/10/28 02:03:45;;;;;;;17.07;13.20;;;;;;;12.64;100.00;101029.45;2835211;81;20998;-89
2022/10/28 02:07:51;;;;;;;15.28;11.80;;;;;;;12.83;100.00;101032.83;2816509;82;21678;-88
2022/10/28 02:12:21;;;;;;;16.37;13.03;;;;;;;12.96;100.00;101028.68;2799597;83;21512;-88
2022/10/28 02:16:43;;;;;;;18.30;13.48;;;;;;;13.07;100.00;101018.50;2811872;83;21607;-88
2022/10/28 02:20:58;;;;;;;17.12;12.28;;;;;;;13.18;100.00;101022.97;2816789;81;21017;-88
2022/10/28 02:25:17;;;;;;;15.53;13.35;;;;;;;13.08;100.00;101015.32;2798342;83;20991;-89
2022/10/28 02:29:36;;;;;;;17.15;12.85;;;;;;;12.93;100.00;101016.91;2840462;82;21584;-89
2022/10/28 02:33:39;;;;;;;16.20;12.13;;;;;;;12.84;100.00;101011.83;2843727;81;21049;-88
2022/10/28 02:37:43;;;;;;;16.82;12.15;;;;;;;12.77;100.00;101007.09;2822031;82;21025;-89
2022/10/28 02:41:58;;;;;;;14.55;12.28;;;;;;;12.73;100.00;101014.99;2812119;82;21560;-90
2022/10/28 02:46:02;;;;;;;18.15;13.40;;;;;;;12.70;100.00;101021.44;2837513;82;21073;-89
2022/10/28 02:50:09;;;;;;;19.30;14.10;;;;;;;12.69;100.00;101016.58;2835292;82;21078;-87
2022/10/28 02:54:39;;;;;;;23.12;12.15;;;;;;;12.67;100.00;101011.84;2812712;82;21102;-89
2022/10/28 02:58:41;;;;;;;15.68;11.25;;;;;;;12.71;100.00;101019.97;2802761;83;21027;-89
2022/10/28 03:02:42;;;;;;;24.75;14.95;;;;;;;12.83;100.00;101008.80;2809321;82;21108;-91
2022/10/28 03:06:43;;;;;;;16.73;13.05;;;;;;;12.92;100.00;101007.71;2798447;82;21031;-91
2022/10/28 03:10:45;;;;;;;20.43;14.15;;;;;;;12.97;100.00;101010.37;2748373;83;21160;-91
2022/10/28 03:14:46;;;;;;;18.02;12.55;;;;;;;12.99;100.00;101000.42;2783894;83;21043;-91
2022/10/28 03:18:47;;;;;;;20.50;13.13;;;;;;;12.91;100.00;100998.00;2765036;85;21033;-92
2022/10/28 03:22:49;;;;;;;19.85;13.15;;;;;;;12.77;100.00;101012.44;2752733;84;21064;-92
2022/10/28 03:26:50;;;;;;;20.17;13.95;;;;;;;12.67;100.00;101013.66;2800838;83;21043;-92
2022/10/28 03:30:51;;;;;;;27.45;17.02;;;;;;;12.68;100.00;101008.70;2774496;84;21048;-92
2022/10/28 03:34:52;;;;;;;22.27;15.90;;;;;;;12.80;100.00;101009.05;2778308;83;21475;-92
2022/10/28 03:38:54;;;;;;;20.57;14.93;;;;;;;12.94;100.00;101009.27;2791838;82;21095;-92
2022/10/28 03:42:55;;;;;;;16.42;13.83;;;;;;;12.83;100.00;100999.45;2782246;82;21037;-92
2022/10/28 03:46:56;;;;;;;15.88;14.07;;;;;;;12.74;100.00;101002.00;2836437;81;21031;-92
2022/10/28 03:50:58;;;;;;;20.20;14.05;;;;;;;12.77;100.00;101003.09;2806733;83;21025;-91
2022/10/28 03:54:59;;;;;;;16.57;13.45;;;;;;;12.68;100.00;100994.86;2796846;83;21046;-90
2022/10/28 03:59:01;;;;;;;24.18;13.05;;;;;;;12.65;100.00;100993.77;2820758;82;21013;-92
2022/10/28 04:03:02;;;;;;;19.55;12.80;;;;;;;12.66;100.00;100990.13;2810547;83;21488;-94
2022/10/28 04:07:04;;;;;;;19.67;14.80;;;;;;;12.66;100.00;100998.14;2842970;82;21065;-91
2022/10/28 04:11:05;;;;;;;16.07;13.68;;;;;;;12.66;100.00;100989.27;2843092;82;21092;-89
2022/10/28 04:15:07;;;;;;;13.43;12.05;;;;;;;12.66;100.00;100994.61;2848472;82;21049;-89
2022/10/28 04:19:08;;;;;;;19.10;13.88;;;;;;;12.73;100.00;101000.31;2842548;82;21034;-92
2022/10/28 04:23:17;;;;;;;19.15;12.37;;;;;;;12.79;100.00;100999.34;2799986;82;21049;-91
2022/10/28 04:27:18;;;;;;;20.20;13.93;;;;;;;12.68;100.00;100996.70;2827813;82;21064;-94
2022/10/28 04:31:20;;;;;;;20.48;13.50;;;;;;;12.60;100.00;100995.10;2830009;81;21038;-93
2022/10/28 04:35:21;;;;;;;25.75;15.60;;;;;;;12.66;100.00;100989.27;2827566;80;21618;-93
2022/10/28 04:39:22;;;;;;;19.00;13.90;;;;;;;12.79;100.00;100997.17;2780379;83;21049;-92
2022/10/28 04:43:24;;;;;;;16.95;13.10;;;;;;;12.82;100.00;100987.58;2789300;83;21002;-91
2022/10/28 04:47:25;;;;;;;21.62;12.82;;;;;;;12.75;100.00;100989.02;2774806;84;21520;-93
2022/10/28 04:51:27;;;;;;;17.10;14.15;;;;;;;12.73;100.00;100984.30;2785736;83;21041;-93
2022/10/28 04:55:28;;;;;;;22.32;14.30;;;;;;;12.72;100.00;100979.45;2791796;83;21033;-93
2022/10/28 04:59:30;;;;;;;14.68;10.95;;;;;;;12.74;100.00;100981.52;2782112;83;21017;-93
2022/10/28 05:03:31;;;;;;;18.90;13.90;;;;;;;12.84;100.00;100982.95;2805285;82;21046;-94
2022/10/28 05:07:33;;;;;;;13.80;11.30;;;;;;;12.94;100.00;100979.89;2815862;80;20995;-92
2022/10/28 05:11:35;;;;;;;14.55;10.60;;;;;;;12.88;100.00;100976.39;2795946;81;20986;-91
2022/10/28 05:15:36;;;;;;;17.70;13.30;;;;;;;12.76;100.00;100970.70;2753898;84;21071;-92
2022/10/28 05:19:38;;;;;;;14.58;10.15;;;;;;;12.71;100.00;100960.41;2822893;80;21036;-94
2022/10/28 05:23:39;;;;;;;14.63;11.20;;;;;;;12.67;100.00;100957.12;2810892;82;21011;-95
2022/10/28 05:27:41;;;;;;;13.00;9.73;;;;;;;12.64;100.00;100952.05;2838617;80;21531;-93
2022/10/28 05:31:42;;;;;;;15.80;12.60;;;;;;;12.64;100.00;100951.17;2841441;82;21033;-89
2022/10/28 05:35:43;;;;;;;20.43;15.80;;;;;;;12.56;100.00;100945.12;2807499;81;21014;-92
2022/10/28 05:39:45;;;;;;;24.87;16.62;;;;;;;12.56;100.00;100951.79;2833415;80;21636;-92
2022/10/28 05:43:46;;;;;;;20.48;15.43;;;;;;;12.56;100.00;100943.31;2811332;81;21033;-91
2022/10/28 05:47:48;;;;;;;18.70;15.13;;;;;;;12.53;100.00;100946.23;2760883;81;21034;-93
2022/10/28 05:51:50;;;;;;;21.82;16.00;;;;;;;12.67;100.00;100953.59;2766146;81;21038;-93
2022/10/28 05:55:51;;;;;;;20.48;13.40;;;;;;;12.84;100.00;100944.25;2759254;83;21038;-94
2022/10/28 05:59:52;;;;;;;23.62;15.30;;;;;;;12.97;100.00;100940.09;2754068;82;20951;-93
2022/10/28 06:03:54;;;;;;;20.52;12.05;;;;;;;13.16;100.00;100942.08;2837093;81;21644;-95
2022/10/28 06:07:55;;;;;;;15.43;12.37;;;;;;;13.41;100.00;100942.73;2846129;82;21126;-93
2022/10/28 06:11:56;;;;;;;16.50;11.20;;;;;;;13.72;100.00;100946.84;2814971;81;20978;-92
2022/10/28 06:16:00;;;;;;;16.67;12.15;;;;;;;14.00;100.00;100943.16;2823305;82;21080;-94
2022/10/28 06:20:02;;;;;;;18.40;13.48;;;;;;;14.27;100.00;100950.62;2823381;82;21135;-94
2022/10/28 06:24:04;;;;;;;16.70;10.23;;;;;;;14.49;100.00;100941.19;2797296;80;21034;-94
2022/10/28 06:28:07;;;;;;;15.05;10.43;;;;;;;14.51;100.00;100935.20;2774148;83;21121;-93
2022/10/28 06:32:10;;;;;;;13.45;10.88;;;;;;;14.50;100.00;100938.87;2786758;82;21583;-95
2022/10/28 06:36:11;;;;;;;12.58;11.25;;;;;;;14.64;100.00;100934.48;2793918;83;21007;-91
2022/10/28 06:40:12;;;;;;;14.80;11.38;;;;;;;14.69;100.00;100928.72;2793202;82;21065;-94
2022/10/28 06:44:14;;;;;;;19.55;10.10;;;;;;;14.90;100.00;100939.86;2787887;82;21576;-96
2022/10/28 06:48:15;;;;;;;12.58;9.80;;;;;;;15.16;100.00;100933.48;2763972;83;21010;-94
2022/10/28 06:52:16;;;;;;;11.33;10.13;;;;;;;15.27;100.00;100944.05;2797485;82;21038;-94
2022/10/28 06:56:18;;;;;;;12.13;9.00;;;;;;;15.29;100.00;100965.37;2804440;82;21037;-94
2022/10/28 07:00:19;;;;;;;11.10;8.38;;;;;;;15.42;100.00;100965.09;2866816;82;21470;-93
2022/10/28 07:04:23;;;;;;;13.85;9.58;;;;;;;15.59;100.00;100968.05;2819614;82;21011;-94
2022/10/28 07:08:26;;;;;;;16.50;8.88;;;;;;;15.60;100.00;100973.77;2827778;82;22016;-94
2022/10/28 07:12:27;;;;;;;12.75;9.73;;;;;;;15.50;100.00;100979.95;2814171;82;21566;-93
2022/10/28 07:16:29;;;;;;;13.98;10.00;;;;;;;15.59;100.00;100977.44;2815810;82;21028;-94
2022/10/28 07:20:31;;;;;;;11.30;8.28;;;;;;;15.71;100.00;100973.11;2853633;82;21005;-96
2022/10/28 07:24:33;;;;;;;13.80;10.45;;;;;;;15.83;100.00;100974.31;2845729;82;21016;-95
2022/10/28 07:28:34;;;;;;;11.38;8.18;;;;;;;15.81;100.00;100970.42;2814439;81;21032;-96
2022/10/28 07:32:36;;;;;;;10.25;8.13;;;;;;;15.83;100.00;100977.00;2850799;82;21055;-95
2022/10/28 07:36:38;;;;;;;14.70;8.78;;;;;;;15.89;100.00;100972.90;2809876;82;21089;-94
2022/10/28 07:40:40;;;;;;;15.88;9.18;;;;;;;15.93;100.00;100975.67;2793386;83;21103;-87
2022/10/28 07:44:42;;;;;;;16.00;10.13;;;;;;;15.94;100.00;100972.83;2806157;80;21011;-96
2022/10/28 07:48:43;;;;;;;12.63;8.63;;;;;;;16.02;100.00;100966.73;2863568;82;20988;-96
2022/10/28 07:52:45;;;;;;;8.58;6.65;;;;;;;16.29;100.00;100967.78;2817363;82;21916;-93
2022/10/28 07:56:46;;;;;;;10.65;8.28;;;;;;;16.55;100.00;100965.79;2828559;81;21067;-93
2022/10/28 08:00:48;;;;;;;6.95;6.22;;;;;;;16.82;100.00;100962.73;2804481;82;21002;-90
2022/10/28 08:04:50;;;;;;;8.88;6.45;;;;;;;17.12;100.00;100956.20;2828987;81;21053;-95
2022/10/28 08:08:56;;;;;;;8.40;5.62;;;;;;;17.47;100.00;100964.94;2792074;82;21052;-95
2022/10/28 08:12:59;;;;;;;6.85;5.53;;;;;;;17.81;100.00;100969.59;2835423;81;21065;-91
2022/10/28 08:17:01;;;;;;;10.60;6.70;;;;;;;18.16;100.00;100971.86;2797876;81;21048;-95
2022/10/28 08:21:06;;;;;;;11.10;4.72;;;;;;;18.55;100.00;100970.03;2823896;82;21070;-92
2022/10/28 08:25:08;;;;;;;9.65;6.58;;;;;;;18.96;100.00;100968.00;2829156;82;21022;-96
2022/10/28 08:29:11;;;;;;;7.90;5.17;;;;;;;19.22;100.00;100972.98;2849934;81;21056;-95
2022/10/28 08:33:13;;;;;;;4.92;4.42;;;;;;;19.24;100.00;100973.13;2832135;81;21009;-93
2022/10/28 08:37:15;;;;;;;5.58;4.97;;;;;;;19.29;100.00;100967.77;2851743;82;21073;-94
2022/10/28 08:41:39;;;;;;;6.33;3.80;;;;;;;19.31;100.00;100963.88;2840418;82;21041;-94
2022/10/28 08:45:54;;;;;;;8.75;5.10;;;;;;;19.40;100.00;100962.02;2786803;84;21037;-94
2022/10/28 08:50:04;;;;;;;8.60;4.72;;;;;;;19.52;100.00;100967.44;2836626;81;21517;-96
2022/10/28 08:54:18;;;;;;;4.40;3.42;;;;;;;19.66;98.41;100950.25;2828287;82;21033;-96
2022/10/28 08:58:25;;;;;;;8.28;4.80;;;;;;;19.86;98.61;100959.34;2837914;80;21485;-86
2022/10/28 09:02:32;;;;;;;8.05;5.15;;;;;;;20.14;99.37;100948.98;2768778;81;21094;-89
2022/10/28 09:06:33;;;;;;;9.98;4.62;;;;;;;20.27;95.19;100951.17;2790864;82;21028;-95
2022/10/28 09:11:09;;;;;;;8.30;3.72;;;;;;;20.46;95.56;100951.26;2813990;81;20990;-93
2022/10/28 09:15:52;;;;;;;4.72;3.70;;;;;;;20.61;96.05;100947.30;2806327;82;21023;-93
2022/10/28 09:20:14;;;;;;;4.30;3.90;;;;;;;20.88;95.51;100955.14;2812758;82;21505;-95
2022/10/28 09:24:26;;;;;;;4.35;3.12;;;;;;;21.06;93.45;100954.89;2783513;83;21017;-96
2022/10/28 09:28:42;;;;;;;6.25;3.70;;;;;;;21.23;93.78;100960.52;2813981;82;21623;-94
2022/10/28 09:32:59;;;;;;;;;;;;;;;21.40;91.25;100963.08;2794610;82;21896;-95
2022/10/28 09:37:29;;;;;;;5.58;3.33;;;;;;;21.54;92.05;100959.59;2587621;89;20111;-96
2022/10/28 09:41:40;;;;;;;6.92;3.50;;;;;;;21.68;91.39;100961.20;2621505;88;21030;-96
2022/10/28 09:45:46;;;;;;;6.62;2.92;;;;;;;21.81;91.24;100966.84;2617776;88;21063;-93
2022/10/28 09:49:50;;;;;;;6.58;3.25;;;;;;;21.89;87.59;100966.42;2645571;87;21105;-95
2022/10/28 09:53:57;;;;;;;4.90;3.93;;;;;;;22.02;89.29;100965.29;2622003;87;21064;-95
2022/10/28 09:57:59;;;;;;;6.62;3.65;;;;;;;22.14;88.18;100958.05;2645061;87;21017;-95
2022/10/28 10:02:31;;;;;;;3.87;3.08;;;;;;;22.25;88.50;100964.36;2635342;87;21544;-95
2022/10/28 10:07:05;;;;;;;4.33;3.50;;;;;;;22.34;87.81;100955.63;2639685;86;21024;-94
2022/10/28 10:11:18;;;;;;;5.62;2.80;;;;;;;22.36;85.69;100953.04;2658550;85;21087;-95
2022/10/28 10:15:39;;;;;;;3.70;3.08;;;;;;;22.44;87.00;100959.41;2753527;83;21117;-92
2022/10/28 10:20:11;;;;;;;4.80;2.90;;;;;;;22.59;86.21;100960.23;2777630;82;21068;-93
2022/10/28 10:24:34;;;;;;;4.45;2.10;;;;;;;22.70;83.61;100954.88;2801204;81;21846;-94
2022/10/28 10:28:57;;;;;;;5.37;2.60;;;;;;;22.76;85.39;100950.53;2753667;83;21027;-94
2022/10/28 10:33:00;;;;;;;4.78;2.30;;;;;;;22.79;84.37;100944.23;2799822;81;21031;-96
2022/10/28 10:37:02;;;;;;;4.90;3.00;;;;;;;22.81;83.52;100939.98;2812465;81;21066;-94
2022/10/28 10:41:04;;;;;;;4.50;2.95;;;;;;;22.85;82.28;100933.14;2795263;81;21068;-94
2022/10/28 10:45:26;;;;;;;5.80;2.80;;;;;;;22.89;82.88;100930.86;2798205;82;21032;-96
2022/10/28 10:49:29;;;;;;;4.65;3.05;;;;;;;22.83;81.14;100921.11;2827034;81;21083;-92
2022/10/28 10:53:33;;;;;;;5.42;3.17;;;;;;;22.83;83.72;100921.11;2807206;81;21063;-95
2022/10/28 10:57:34;;;;;;;7.72;3.70;;;;;;;22.94;83.59;100919.77;2806106;82;21042;-93
2022/10/28 11:01:39;;;;;;;4.75;3.27;;;;;;;22.91;79.94;100918.80;2793324;82;21053;-92
2022/10/28 11:05:57;;;;;;;3.80;3.47;;;;;;;22.96;80.62;100924.48;2805759;82;21971;-92
2022/10/28 11:09:59;;;;;;;5.72;3.27;;;;;;;22.97;80.75;100911.23;2755344;82;21030;-94
2022/10/28 11:14:31;;;;;;;3.55;2.05;;;;;;;23.04;82.79;100907.23;2746546;84;21089;-95
2022/10/28 11:18:45;;;;;;;4.00;2.92;;;;;;;23.08;78.56;100898.20;2789263;81;21063;-95
2022/10/28 11:23:01;;;;;;;3.08;2.52;;;;;;;23.13;80.98;100898.45;2782971;83;21096;-92
2022/10/28 11:27:17;;;;;;;7.00;4.03;;;;;;;23.20;80.64;100893.09;2811900;81;21144;-93
2022/10/28 11:31:38;;;;;;;;;;;;;;;23.20;79.68;100893.09;2802854;82;20993;-93
2022/10/28 11:36:21;;;;;;;6.78;3.52;;;;;;;23.19;78.63;100886.84;2740860;83;20515;-95
2022/10/28 11:40:52;;;;;;;4.28;2.83;;;;;;;23.19;80.04;100884.63;2765251;83;21499;-95
2022/10/28 11:45:11;;;;;;;9.58;2.50;;;;;;;23.10;77.37;100883.92;2764104;82;21024;-94
2022/10/28 11:49:43;;;;;;;8.78;2.77;;;;;;;23.11;77.37;100875.61;2791107;82;21075;-93
2022/10/28 11:54:25;;;;;;;6.87;2.90;;;;;;;23.10;78.13;100868.50;2830513;81;21046;-95
2022/10/28 11:58:41;;;;;;;8.50;4.45;;;;;;;23.03;78.98;100869.47;2836141;82;21017;-95
2022/10/28 12:03:22;;;;;;;6.08;3.72;;;;;;;23.02;78.60;100855.05;2717071;85;21763;-94
2022/10/28 12:07:52;;;;;;;13.55;4.37;;;;;;;23.08;80.61;100852.09;2717633;84;21129;-96
2022/10/28 12:12:11;;;;;;;14.65;5.37;;;;;;;23.08;79.21;100841.23;2658997;86;21065;-93
2022/10/28 12:16:24;;;;;;;8.93;3.40;;;;;;;23.16;80.35;100841.08;2642867;87;21043;-93
2022/10/28 12:20:37;;;;;;;5.35;3.47;;;;;;;23.04;77.00;100833.99;2656503;87;21057;-95
2022/10/28 12:25:01;;;;;;;6.03;3.30;;;;;;;23.00;78.04;100840.02;2577972;89;21087;-93
2022/10/28 12:29:28;;;;;;;7.87;4.22;;;;;;;22.95;78.05;100840.06;2635637;87;21093;-93
2022/10/28 12:33:41;;;;;;;7.08;3.37;;;;;;;22.95;77.62;100836.53;2640401;87;21648;-92
2022/10/28 12:38:07;;;;;;;5.75;4.03;;;;;;;22.92;78.45;100826.90;2614592;88;21173;-90
2022/10/28 12:42:19;;;;;;;4.72;3.40;;;;;;;22.93;77.86;100831.28;2658360;86;21050;-95
2022/10/28 12:47:12;;;;;;;9.28;3.35;;;;;;;22.90;77.75;100819.47;2753997;81;21068;-96
2022/10/28 12:51:36;;;;;;;17.40;4.78;;;;;;;22.96;78.96;100815.16;2828930;82;21524;-95
2022/10/28 12:55:57;;;;;;;7.30;3.95;;;;;;;22.97;78.97;100817.66;2783200;82;21055;-90
2022/10/28 13:00:06;;;;;;;9.20;5.50;;;;;;;23.02;79.40;100817.61;2797781;82;21532;-93
2022/10/28 13:04:27;;;;;;;8.85;3.87;;;;;;;23.05;78.64;100809.08;2800491;81;21019;-91
2022/10/28 13:09:08;;;;;;;10.28;5.67;;;;;;;23.06;77.61;100805.33;2799030;81;21093;-94
2022/10/28 13:13:42;;;;;;;8.05;4.80;;;;;;;23.11;77.72;100804.20;2789378;82;21047;-93
2022/10/28 13:18:04;;;;;;;6.67;4.30;;;;;;;23.14;77.04;100797.56;2794654;82;21083;-92
2022/10/28 13:22:22;;;;;;;10.23;5.58;;;;;;;23.08;77.13;100794.58;2763560;83;21037;-89
2022/10/28 13:26:33;;;;;;;10.68;5.80;;;;;;;23.10;78.04;100798.46;2789069;83;21069;-95
2022/10/28 13:30:34;;;;;;;9.08;4.60;;;;;;;23.17;77.22;100785.77;2754140;83;21037;-95
2022/10/28 13:34:39;;;;;;;8.20;4.50;;;;;;;23.17;75.90;100784.42;2778155;83;20989;-94
2022/10/28 13:38:41;;;;;;;9.00;5.25;;;;;;;23.12;77.13;100782.83;2771047;83;21030;-93
2022/10/28 13:42:46;;;;;;;6.65;4.65;;;;;;;23.05;76.06;100780.59;2780903;82;21090;-94
2022/10/28 13:47:03;;;;;;;13.22;5.78;;;;;;;23.01;78.58;100776.06;2780872;82;20994;-92
2022/10/28 13:51:14;;;;;;;8.43;5.40;;;;;;;23.03;77.56;100777.23;2763957;82;21039;-93
2022/10/28 13:55:42;;;;;;;13.48;7.22;;;;;;;23.01;77.20;100775.23;2781626;82;21006;-92
2022/10/28 14:00:04;;;;;;;8.75;5.35;;;;;;;22.99;76.65;100773.21;2788363;82;21636;-89
2022/10/28 14:04:24;;;;;;;8.98;5.92;;;;;;;22.91;75.27;100776.41;2776373;83;21067;-94
2022/10/28 14:08:38;;;;;;;8.78;6.33;;;;;;;22.92;76.57;100778.61;2782462;82;21025;-94
2022/10/28 14:12:43;;;;;;;8.38;5.28;;;;;;;22.86;75.81;100773.44;2805816;79;21018;-95
2022/10/28 14:16:45;;;;;;;12.10;6.70;;;;;;;22.86;76.48;100774.80;2822897;80;21041;-91
2022/10/28 14:20:54;;;;;;;9.38;5.83;;;;;;;22.75;76.75;100780.23;2806828;80;22666;-96
2022/10/28 14:24:55;;;;;;;9.85;5.90;;;;;;;22.72;76.35;100773.00;2842664;81;21018;-94
2022/10/28 14:28:57;;;;;;;13.55;6.97;;;;;;;22.64;76.92;100763.97;2816964;81;21019;-90
2022/10/28 14:33:12;;;;;;;12.05;5.95;;;;;;;22.54;77.52;100756.67;2806943;82;20986;-93
2022/10/28 14:37:53;;;;;;;11.60;5.87;;;;;;;22.37;77.83;100756.88;2832722;82;21017;-92
2022/10/28 14:42:27;;;;;;;9.75;6.40;;;;;;;22.27;78.58;100759.08;2810473;81;21053;-93
2022/10/28 14:46:37;;;;;;;12.13;7.17;;;;;;;22.08;78.76;100758.67;2804285;81;21065;-93
2022/10/28 14:50:46;;;;;;;12.18;6.20;;;;;;;21.94;79.64;100753.61;2682274;85;21712;-92
2022/10/28 14:54:57;;;;;;;12.03;6.40;;;;;;;21.82;80.09;100760.03;2668422;86;21091;-90
2022/10/28 14:59:22;;;;;;;12.95;8.60;;;;;;;21.74;80.59;100759.30;2649677;86;21007;-94
2022/10/28 15:03:24;;;;;;;15.63;8.37;;;;;;;21.69;80.70;100752.55;2616775;87;21135;-94
2022/10/28 15:07:26;;;;;;;12.13;9.63;;;;;;;21.53;80.76;100748.16;2580333;88;21069;-95
2022/10/28 15:11:28;;;;;;;9.68;6.85;;;;;;;21.34;80.78;100738.74;2601616;89;21133;-93
2022/10/28 15:15:55;;;;;;;12.23;6.75;;;;;;;21.20;81.40;100740.39;2646761;88;21091;-92
2022/10/28 15:19:59;;;;;;;14.18;7.90;;;;;;;20.96;81.98;100742.84;2608953;89;21128;-94
2022/10/28 15:24:05;;;;;;;17.37;12.30;;;;;;;20.81;82.40;100734.68;2614807;89;21076;-87
2022/10/28 15:28:12;;;;;;;29.15;12.35;;;;;;;20.64;82.77;100736.16;2666610;85;21042;-94
2022/10/28 15:32:27;;;;;;;15.20;11.73;;;;;;;20.50;83.15;100734.23;2723206;84;21201;-93
2022/10/28 15:36:28;;;;;;;19.15;9.65;;;;;;;20.40;83.26;100748.81;2742230;82;21574;-95
2022/10/28 15:40:33;;;;;;;13.93;10.43;;;;;;;20.19;84.02;100741.87;2831260;80;21066;-92
2022/10/28 15:44:37;;;;;;;12.03;9.18;;;;;;;20.06;84.25;100738.41;2809955;82;21070;-91
2022/10/28 15:48:39;;;;;;;18.77;12.28;;;;;;;19.98;84.13;100737.94;2831938;82;21021;-94
2022/10/28 15:52:43;;;;;;;19.07;14.93;;;;;;;19.86;84.03;100736.63;2786777;82;21072;-93
2022/10/28 15:56:56;;;;;;;25.60;13.03;;;;;;;19.71;83.77;100730.62;2790441;82;21553;-92
2022/10/28 16:01:37;;;;;;;24.63;14.23;;;;;;;19.58;83.55;100734.38;2800781;82;21001;-93
2022/10/28 16:05:58;;;;;;;13.72;10.00;;;;;;;19.44;83.79;100738.64;2840404;82;21475;-92
2022/10/28 16:10:00;;;;;;;14.47;9.43;;;;;;;19.30;84.04;100736.16;2824948;82;21532;-94
2022/10/28 16:14:06;;;;;;;18.32;11.63;;;;;;;19.22;83.97;100735.14;2759376;83;21005;-93
2022/10/28 16:18:09;;;;;;;16.12;9.73;;;;;;;19.13;84.06;100738.36;2818095;82;21014;-93
2022/10/28 16:22:30;;;;;;;17.30;10.63;;;;;;;18.99;84.35;100739.08;2836234;81;21564;-94
2022/10/28 16:26:32;;;;;;;13.68;9.33;;;;;;;18.89;84.46;100739.72;2818990;81;21045;-93
2022/10/28 16:30:33;;;;;;;14.00;9.05;;;;;;;18.81;84.93;100739.21;2785360;82;21065;-89
2022/10/28 16:34:35;;;;;;;11.95;7.00;;;;;;;18.74;85.16;100734.17;2800221;82;21567;-93
2022/10/28 16:38:55;;;;;;;12.20;7.50;;;;;;;18.64;85.30;100740.55;2821463;84;21440;-91
2022/10/28 16:43:21;;;;;;;9.08;6.12;;;;;;;18.56;85.53;100742.73;2784649;83;21491;-93
2022/10/28 16:47:25;;;;;;;11.22;5.85;;;;;;;18.46;86.20;100741.21;2770522;83;21069;-96
2022/10/28 16:51:27;;;;;;;8.53;5.67;;;;;;;18.41;86.30;100747.95;2747983;82;20993;-91
2022/10/28 16:55:30;;;;;;;9.25;6.72;;;;;;;18.32;86.98;100736.84;2785306;82;31161;-91
2022/10/28 16:59:31;;;;;;;13.32;8.58;;;;;;;18.31;87.12;100741.89;2854844;81;20971;-90
2022/10/28 17:03:33;;;;;;;12.58;7.28;;;;;;;18.27;87.27;100740.51;2811996;81;21530;-92
2022/10/28 17:07:54;;;;;;;10.88;6.42;;;;;;;18.21;87.46;100748.77;2787685;82;21046;-94
2022/10/28 17:12:18;;;;;;;9.95;7.45;;;;;;;18.16;87.73;100740.32;2807380;81;21669;-96
2022/10/28 17:16:19;;;;;;;10.88;6.00;;;;;;;18.11;87.93;100748.91;2779321;83;21017;-93
2022/10/28 17:20:21;;;;;;;9.50;6.87;;;;;;;18.07;88.08;100752.91;2841612;81;21570;-94
2022/10/28 17:24:22;;;;;;;10.55;7.03;;;;;;;18.01;88.18;100743.30;2799368;82;21021;-92
2022/10/28 17:28:24;;;;;;;14.18;6.00;;;;;;;17.96;88.45;100748.64;2798180;82;21053;-91
2022/10/28 17:32:25;;;;;;;10.88;6.42;;;;;;;17.94;88.43;100750.66;2746085;82;21086;-92
2022/10/28 17:36:45;;;;;;;8.35;6.67;;;;;;;17.95;88.34;100747.48;2812467;82;21084;-92
2022/10/28 17:40:57;;;;;;;10.55;5.80;;;;;;;17.89;88.63;100750.83;2819528;82;21530;-91
2022/10/28 17:44:59;;;;;;;12.30;7.25;;;;;;;17.85;88.56;100748.44;2838126;81;21020;-93
2022/10/28 17:49:07;;;;;;;9.65;6.62;;;;;;;17.82;88.73;100748.77;2787081;81;21660;-92
2022/10/28 17:57:20;;;;;;;16.73;9.00;;;;;;;17.69;89.54;100747.05;2891662;78;71457;-88
2022/10/28 18:01:44;;;;;;;11.88;5.75;;;;;;;17.65;89.67;100749.70;2893180;79;21129;-93
2022/10/28 18:06:15;;;;;;;10.55;5.42;;;;;;;17.63;89.77;100744.98;2869552;79;21011;-94
2022/10/28 18:10:19;;;;;;;7.30;5.60;;;;;;;17.65;89.61;100746.52;2930853;78;20998;-92
2022/10/28 18:23:31;;;;;;;13.22;5.70;;;;;;;17.85;88.31;100739.02;2933847;79;68832;-91
2022/10/28 18:27:51;;;;;;;9.68;6.03;;;;;;;17.83;87.96;100738.34;2852392;80;21031;-96
2022/10/28 18:31:55;;;;;;;13.50;7.20;;;;;;;17.81;87.68;100730.12;2853700;81;21538;-91
2022/10/28 18:36:02;;;;;;;7.60;6.70;;;;;;;17.78;87.83;100730.41;2881879;80;21775;-91
2022/10/28 18:40:05;;;;;;;16.77;8.15;;;;;;;17.71;87.82;100731.59;2952071;79;20982;-93
2022/10/28 18:44:15;;;;;;;9.08;6.28;;;;;;;17.70;87.97;100732.08;2903968;79;21046;-94
2022/10/28 18:48:17;;;;;;;10.63;7.22;;;;;;;17.65;87.78;100721.45;2853605;80;21055;-92
2022/10/28 18:52:20;;;;;;;10.00;7.40;;;;;;;17.65;87.66;100718.77;2945510;79;20991;-94
2022/10/28 18:56:28;;;;;;;11.20;6.33;;;;;;;17.67;88.00;100716.27;2950739;78;21038;-91
2022/10/28 19:00:34;;;;;;;9.93;5.97;;;;;;;17.68;87.69;100716.61;2931633;79;20991;-95
2022/10/28 19:04:37;;;;;;;9.48;6.58;;;;;;;17.66;87.67;100709.69;2946283;79;21006;-93
2022/10/28 19:08:47;;;;;;;11.90;5.55;;;;;;;17.66;87.21;100716.42;2813012;80;21692;-95
2022/10/28 19:12:49;;;;;;;11.30;6.83;;;;;;;17.71;87.25;100714.11;2912978;78;21580;-93
2022/10/28 19:17:09;;;;;;;6.72;5.40;;;;;;;17.67;87.48;100719.45;2929623;78;21007;-94